createdAt,value
2023-02-25T00:00:35.020Z,95179.50
2023-02-25T00:03:01.952Z,95188.81
2023-02-25T00:05:31.942Z,95193.06
2023-02-25T00:07:59.093Z,95171.16
2023-02-25T00:10:25.719Z,95190.53
2023-02-25T00:12:52.379Z,95185.38
2023-02-25T00:15:19.429Z,95188.16
2023-02-25T00:17:45.986Z,95189.22
2023-02-25T00:20:15.622Z,95162.63
2023-02-25T00:22:42.604Z,95196.19
2023-02-25T00:25:09.848Z,95170.03
2023-02-25T00:27:36.970Z,95177.38
2023-02-25T00:30:05.723Z,95199.13
2023-02-25T00:32:32.542Z,95200.88
2023-02-25T00:34:59.314Z,95188.06
2023-02-25T00:37:25.911Z,95189.56
2023-02-25T00:39:52.551Z,95157.78
2023-02-25T00:42:22.680Z,95168.47
2023-02-25T00:44:50.969Z,95181.34
2023-02-25T00:47:19.711Z,95172.41
2023-02-25T00:49:50.837Z,95168.25
2023-02-25T00:52:18.048Z,95155.59
2023-02-25T00:54:44.723Z,95134.19
2023-02-25T00:57:11.384Z,95142.72
2023-02-25T00:59:37.967Z,95121.91
2023-02-25T01:02:04.813Z,95131.84
2023-02-25T01:04:31.464Z,95112.22
2023-02-25T01:06:58.645Z,95096.66
2023-02-25T01:09:25.636Z,95104.34
2023-02-25T01:11:52.437Z,95103.63
2023-02-25T01:14:22.068Z,95081.75
2023-02-25T01:16:50.161Z,95098.56
2023-02-25T01:19:23.019Z,95105.69
2023-02-25T01:21:52.442Z,95094.09
2023-02-25T01:24:25.570Z,95092.13
2023-02-25T01:26:54.348Z,95111.88
2023-02-25T01:29:26.402Z,95063.03
2023-02-25T01:31:55.212Z,95092.25
2023-02-25T01:34:22.412Z,95091.59
2023-02-25T01:36:49.580Z,95095.03
2023-02-25T01:39:18.321Z,95091.53
2023-02-25T01:41:51.167Z,95100.22
2023-02-25T01:44:28.877Z,95105.09
2023-02-25T01:46:55.885Z,95061.38
2023-02-25T01:49:30.173Z,95110.00
2023-02-25T01:52:19.269Z,95071.69
2023-02-25T01:54:48.820Z,95075.59
2023-02-25T01:57:18.751Z,95091.94
2023-02-25T01:59:46.993Z,95085.88
2023-02-25T02:02:17.158Z,95074.56
2023-02-25T02:04:45.418Z,95087.81
2023-02-25T02:07:13.200Z,95092.75
2023-02-25T02:09:40.507Z,95087.22
2023-02-25T02:12:07.891Z,95096.88
2023-02-25T02:14:42.231Z,95090.63
2023-02-25T02:17:15.938Z,95076.44
2023-02-25T02:19:56.246Z,95099.16
2023-02-25T02:22:31.524Z,95088.63
2023-02-25T02:25:36.301Z,95092.63
2023-02-25T02:28:40.542Z,95094.81
2023-02-25T02:31:25.836Z,95108.41
2023-02-25T02:34:29.754Z,95092.03
2023-02-25T02:37:00.455Z,95106.50
2023-02-25T02:39:51.721Z,95115.59
2023-02-25T02:42:36.177Z,95092.41
2023-02-25T02:45:45.022Z,95109.97
2023-02-25T02:48:25.297Z,95105.81
2023-02-25T02:50:57.193Z,95100.81
2023-02-25T02:53:32.829Z,95097.81
2023-02-25T02:56:03.472Z,95103.13
2023-02-25T02:58:36.558Z,95089.88
2023-02-25T03:01:09.065Z,95062.84
2023-02-25T03:03:45.007Z,95084.59
2023-02-25T03:06:17.571Z,95091.19
2023-02-25T03:08:53.483Z,95093.09
2023-02-25T03:11:20.156Z,95094.41
2023-02-25T03:13:46.711Z,95112.16
2023-02-25T03:16:25.267Z,95109.09
2023-02-25T03:19:29.696Z,95113.63
2023-02-25T03:22:04.421Z,95110.31
2023-02-25T03:24:41.745Z,95118.06
2023-02-25T03:27:25.050Z,95119.53
2023-02-25T03:29:53.218Z,95118.22
2023-02-25T03:32:20.959Z,95104.91
2023-02-25T03:34:51.241Z,95130.31
2023-02-25T03:37:23.675Z,95129.78
2023-02-25T03:39:56.295Z,95112.03
2023-02-25T03:42:30.805Z,95129.06
2023-02-25T03:45:02.758Z,95118.84
2023-02-25T03:47:31.782Z,95129.19
2023-02-25T03:50:01.400Z,95133.25
2023-02-25T03:52:29.493Z,95136.97
2023-02-25T03:54:58.082Z,95128.25
2023-02-25T03:57:36.181Z,95127.06
2023-02-25T04:00:15.873Z,95133.38
2023-02-25T04:02:44.049Z,95133.63
2023-02-25T04:05:11.457Z,95167.59
2023-02-25T04:07:38.908Z,95156.88
2023-02-25T04:10:07.997Z,95167.72
2023-02-25T04:12:34.696Z,95160.13
2023-02-25T04:15:01.408Z,95164.47
2023-02-25T04:17:28.366Z,95157.88
2023-02-25T04:19:54.968Z,95164.59
2023-02-25T04:22:21.562Z,95164.38
2023-02-25T04:24:48.214Z,95170.44
2023-02-25T04:27:15.828Z,95180.38
2023-02-25T04:29:43.281Z,95176.94
2023-02-25T04:32:11.272Z,95162.25
2023-02-25T04:34:38.525Z,95178.16
2023-02-25T04:37:05.190Z,95180.84
2023-02-25T04:39:32.979Z,95172.91
2023-02-25T04:42:00.364Z,95175.69
2023-02-25T04:44:27.110Z,95172.56
2023-02-25T04:46:54.069Z,95158.91
2023-02-25T04:49:22.482Z,95167.72
2023-02-25T04:51:51.606Z,95170.31
2023-02-25T04:54:20.414Z,95173.56
2023-02-25T04:56:47.602Z,95168.06
2023-02-25T04:59:14.605Z,95141.88
2023-02-25T05:01:41.292Z,95156.78
2023-02-25T05:04:08.009Z,95162.25
2023-02-25T05:06:34.869Z,95143.44
2023-02-25T05:09:02.237Z,95150.03
2023-02-25T05:11:29.136Z,95165.84
2023-02-25T05:13:56.135Z,95169.84
2023-02-25T05:16:23.767Z,95181.41
2023-02-25T05:18:50.779Z,95175.69
2023-02-25T05:21:20.469Z,95131.44
2023-02-25T05:23:48.695Z,95169.88
2023-02-25T05:26:17.167Z,95172.69
2023-02-25T05:28:43.861Z,95163.63
2023-02-25T05:31:12.313Z,95166.31
2023-02-25T05:33:40.326Z,95180.06
2023-02-25T05:36:08.788Z,95163.94
2023-02-25T05:38:36.863Z,95174.22
2023-02-25T05:41:06.166Z,95197.75
2023-02-25T05:43:33.400Z,95168.75
2023-02-25T05:46:03.291Z,95192.03
2023-02-25T05:48:31.554Z,95184.75
2023-02-25T05:51:04.658Z,95202.38
2023-02-25T05:53:31.309Z,95207.06
2023-02-25T05:55:58.028Z,95200.34
2023-02-25T05:58:24.758Z,95206.03
2023-02-25T06:00:51.566Z,95169.59
2023-02-25T06:03:18.165Z,95200.09
2023-02-25T06:05:47.548Z,95210.63
2023-02-25T06:08:14.681Z,95211.97
2023-02-25T06:10:41.713Z,95215.00
2023-02-25T06:13:10.528Z,95220.16
2023-02-25T06:15:42.057Z,95211.75
2023-02-25T06:18:09.713Z,95196.72
2023-02-25T06:20:36.409Z,95184.53
2023-02-25T06:23:03.585Z,95207.06
2023-02-25T06:25:31.067Z,95204.03
2023-02-25T06:28:01.659Z,95198.09
2023-02-25T06:30:29.481Z,95179.38
2023-02-25T06:32:56.891Z,95206.06
2023-02-25T06:35:24.028Z,95218.16
2023-02-25T06:37:54.798Z,95203.03
2023-02-25T06:40:21.500Z,95211.34
2023-02-25T06:42:48.192Z,95203.69
2023-02-25T06:45:15.884Z,95211.44
2023-02-25T06:47:45.184Z,95219.53
2023-02-25T06:50:12.440Z,95207.06
2023-02-25T06:52:39.231Z,95196.75
2023-02-25T06:55:06.862Z,95216.28
2023-02-25T06:57:34.974Z,95199.03
2023-02-25T07:00:01.805Z,95209.22
2023-02-25T07:02:28.420Z,95196.09
2023-02-25T07:04:56.256Z,95201.03
2023-02-25T07:07:23.591Z,95187.69
2023-02-25T07:09:50.166Z,95205.28
2023-02-25T07:12:16.794Z,95203.94
2023-02-25T07:14:43.676Z,95210.19
2023-02-25T07:17:10.224Z,95201.13
2023-02-25T07:19:36.936Z,95215.16
2023-02-25T07:22:05.618Z,95209.53
2023-02-25T07:24:32.340Z,95167.84
2023-02-25T07:26:58.950Z,95214.59
2023-02-25T07:29:27.595Z,95209.09
2023-02-25T07:31:54.696Z,95206.88
2023-02-25T07:34:21.516Z,95216.47
2023-02-25T07:36:48.329Z,95187.16
2023-02-25T07:39:14.909Z,95206.19
2023-02-25T07:41:41.620Z,95200.03
2023-02-25T07:44:09.505Z,95188.13
2023-02-25T07:46:36.453Z,95173.56
2023-02-25T07:49:03.740Z,95208.31
2023-02-25T07:51:30.489Z,95196.72
2023-02-25T07:54:00.796Z,95180.59
2023-02-25T07:56:30.008Z,95178.94
2023-02-25T07:58:56.671Z,95196.53
2023-02-25T08:01:27.504Z,95185.56
2023-02-25T08:03:56.786Z,95191.06
2023-02-25T08:06:24.188Z,95161.25
2023-02-25T08:08:55.539Z,95194.97
2023-02-25T08:11:24.312Z,95188.25
2023-02-25T08:13:51.248Z,95186.34
2023-02-25T08:16:20.100Z,95185.34
2023-02-25T08:18:47.385Z,95151.72
2023-02-25T08:21:18.137Z,95199.91
2023-02-25T08:23:45.265Z,95215.03
2023-02-25T08:26:11.878Z,95185.22
2023-02-25T08:28:47.188Z,95182.44
2023-02-25T08:31:14.106Z,95158.00
2023-02-25T08:33:43.771Z,95174.56
2023-02-25T08:36:14.050Z,95178.16
2023-02-25T08:38:40.651Z,95180.97
2023-02-25T08:41:08.705Z,95195.66
2023-02-25T08:43:36.693Z,95176.50
2023-02-25T08:46:03.937Z,95195.41
2023-02-25T08:48:30.672Z,95195.31
2023-02-25T08:51:08.607Z,95200.56
2023-02-25T08:53:39.892Z,95206.19
2023-02-25T08:56:08.334Z,95184.44
2023-02-25T08:58:35.570Z,95218.94
2023-02-25T09:01:09.199Z,95203.16
2023-02-25T09:03:35.892Z,95211.31
2023-02-25T09:06:02.697Z,95210.00
2023-02-25T09:08:30.374Z,95198.66
2023-02-25T09:10:57.325Z,95196.47
2023-02-25T09:13:23.954Z,95223.91
2023-02-25T09:15:58.182Z,95188.53
2023-02-25T09:18:25.430Z,95180.84
2023-02-25T09:20:52.564Z,95200.53
2023-02-25T09:23:19.264Z,95195.53
2023-02-25T09:25:45.905Z,95180.81
2023-02-25T09:28:13.850Z,95189.19
2023-02-25T09:30:40.579Z,95184.00
2023-02-25T09:33:07.365Z,95160.06
2023-02-25T09:35:34.045Z,95173.59
2023-02-25T09:38:00.630Z,95199.53
2023-02-25T09:40:28.489Z,95184.25
2023-02-25T09:42:58.145Z,95201.75
2023-02-25T09:45:26.381Z,95202.63
2023-02-25T09:48:06.324Z,95190.44
2023-02-25T09:50:41.830Z,95197.13
2023-02-25T09:53:31.721Z,95196.81
2023-02-25T09:55:59.330Z,95167.09
2023-02-25T09:58:54.471Z,95191.66
2023-02-25T10:01:34.609Z,95200.19
2023-02-25T10:04:22.435Z,95192.00
2023-02-25T10:06:51.583Z,95186.94
2023-02-25T10:09:27.350Z,95184.59
2023-02-25T10:12:21.350Z,95187.47
2023-02-25T10:15:19.236Z,95187.56
2023-02-25T10:18:08.567Z,95181.03
2023-02-25T10:21:10.154Z,95170.31
2023-02-25T10:23:55.805Z,95177.69
2023-02-25T10:26:30.062Z,95174.53
2023-02-25T10:29:04.354Z,95155.38
2023-02-25T10:31:32.692Z,95174.06
2023-02-25T10:34:14.286Z,95171.75
2023-02-25T10:36:47.999Z,95160.13
2023-02-25T10:39:14.624Z,95173.22
2023-02-25T10:41:41.340Z,95168.38
2023-02-25T10:44:13.064Z,95167.00
2023-02-25T10:46:54.772Z,95189.91
2023-02-25T10:49:30.524Z,95191.69
2023-02-25T10:52:10.473Z,95213.94
2023-02-25T10:54:52.665Z,95210.28
2023-02-25T10:57:40.806Z,95216.56
2023-02-25T11:00:29.463Z,95223.41
2023-02-25T11:03:01.762Z,95217.31
2023-02-25T11:05:38.573Z,95214.63
2023-02-25T11:08:07.963Z,95208.19
2023-02-25T11:10:35.132Z,95203.47
2023-02-25T11:13:03.644Z,95206.78
2023-02-25T11:15:50.047Z,95201.84
2023-02-25T11:18:23.197Z,95207.91
2023-02-25T11:20:54.196Z,95212.13
2023-02-25T11:23:27.095Z,95211.00
2023-02-25T11:25:55.165Z,95199.22
2023-02-25T11:29:26.820Z,95198.38
2023-02-25T11:32:07.914Z,95211.69
2023-02-25T11:34:45.686Z,95172.06
2023-02-25T11:37:36.987Z,95203.06
2023-02-25T11:40:21.913Z,95203.25
2023-02-25T11:43:06.815Z,95207.81
2023-02-25T11:45:38.587Z,95207.69
2023-02-25T11:48:17.138Z,95217.81
2023-02-25T11:50:53.902Z,95205.56
2023-02-25T11:53:38.494Z,95206.94
2023-02-25T11:56:16.689Z,95203.75
2023-02-25T11:59:06.184Z,95213.25
2023-02-25T12:01:35.392Z,95205.66
2023-02-25T12:04:10.829Z,95199.97
2023-02-25T12:06:56.693Z,95213.16
2023-02-25T12:09:49.839Z,95220.28
2023-02-25T12:12:55.217Z,95225.69
2023-02-25T12:15:49.358Z,95214.88
2023-02-25T12:18:55.284Z,95223.34
2023-02-25T12:21:25.271Z,95227.16
2023-02-25T12:24:16.363Z,95226.25
2023-02-25T12:27:01.621Z,95230.41
2023-02-25T12:29:55.949Z,95232.41
2023-02-25T12:32:48.757Z,95237.44
2023-02-25T12:35:28.606Z,95238.56
2023-02-25T12:38:33.927Z,95242.72
2023-02-25T12:41:17.804Z,95269.31
2023-02-25T12:44:09.324Z,95282.81
2023-02-25T12:46:58.674Z,95281.38
2023-02-25T12:49:57.991Z,95301.00
2023-02-25T12:52:43.108Z,95288.31
2023-02-25T12:55:28.489Z,95290.66
2023-02-25T12:58:07.994Z,95302.09
2023-02-25T13:00:55.788Z,95298.38
2023-02-25T13:03:40.815Z,95300.41
2023-02-25T13:06:24.234Z,95306.75
2023-02-25T13:09:09.262Z,95302.50
2023-02-25T13:12:11.005Z,95297.19
2023-02-25T13:14:56.926Z,95298.06
2023-02-25T13:18:01.132Z,95299.41
2023-02-25T13:21:12.667Z,95288.81
2023-02-25T13:24:01.331Z,95291.56
2023-02-25T13:26:42.722Z,95293.06
2023-02-25T13:29:15.244Z,95291.41
2023-02-25T13:32:03.724Z,95295.03
2023-02-25T13:34:35.037Z,95289.38
2023-02-25T13:37:30.271Z,95307.59
2023-02-25T13:40:47.571Z,95323.38
2023-02-25T13:43:29.873Z,95317.69
2023-02-25T13:46:16.330Z,95313.00
2023-02-25T13:48:56.094Z,95305.38
2023-02-25T13:52:02.595Z,95328.28
2023-02-25T13:54:41.020Z,95323.78
2023-02-25T13:57:21.657Z,95325.81
2023-02-25T14:00:26.354Z,95325.50
2023-02-25T14:03:22.604Z,95325.28
2023-02-25T14:06:01.340Z,95322.94
2023-02-25T14:09:02.403Z,95330.28
2023-02-25T14:11:49.245Z,95325.66
2023-02-25T14:14:35.601Z,95318.81
2023-02-25T14:17:19.396Z,95324.63
2023-02-25T14:20:06.618Z,95332.13
2023-02-25T14:22:35.918Z,95320.38
2023-02-25T14:25:18.171Z,95324.78
2023-02-25T14:27:57.059Z,95325.66
2023-02-25T14:30:26.743Z,95330.84
2023-02-25T14:33:25.709Z,95336.22
2023-02-25T14:36:16.485Z,95343.50
2023-02-25T14:39:00.695Z,95344.28
2023-02-25T14:41:30.453Z,95319.41
2023-02-25T14:44:03.342Z,95341.81
2023-02-25T14:46:41.015Z,95361.22
2023-02-25T14:49:17.212Z,95371.13
2023-02-25T14:52:17.152Z,95406.03
2023-02-25T14:54:59.057Z,95391.78
2023-02-25T14:58:03.042Z,95395.44
2023-02-25T15:00:41.901Z,95399.63
2023-02-25T15:03:43.766Z,95400.13
2023-02-25T15:06:37.328Z,95391.75
2023-02-25T15:09:31.895Z,95389.66
2023-02-25T15:12:17.486Z,95404.06
2023-02-25T15:15:17.282Z,95388.28
2023-02-25T15:18:39.000Z,95411.16
2023-02-25T15:21:38.084Z,95421.75
2023-02-25T15:24:10.624Z,95421.28
2023-02-25T15:26:46.952Z,95404.28
2023-02-25T15:29:28.774Z,95437.72
2023-02-25T15:32:12.525Z,95417.19
2023-02-25T15:35:01.811Z,95418.00
2023-02-25T15:37:34.120Z,95429.66
2023-02-25T15:40:22.051Z,95432.34
2023-02-25T15:42:57.254Z,95405.53
2023-02-25T15:45:27.464Z,95439.44
2023-02-25T15:48:15.272Z,95443.69
2023-02-25T15:50:47.657Z,95446.84
2023-02-25T15:53:21.129Z,95456.31
2023-02-25T15:55:49.220Z,95456.31
2023-02-25T15:58:24.980Z,95462.47
2023-02-25T16:00:52.030Z,95467.03
2023-02-25T16:03:41.198Z,95471.00
2023-02-25T16:06:32.788Z,95468.94
2023-02-25T16:09:05.568Z,95492.31
2023-02-25T16:11:38.460Z,95487.91
2023-02-25T16:14:17.416Z,95484.75
2023-02-25T16:16:51.325Z,95501.47
2023-02-25T16:19:21.441Z,95506.06
2023-02-25T16:22:00.045Z,95516.94
2023-02-25T16:24:28.075Z,95511.28
2023-02-25T16:27:09.990Z,95500.88
2023-02-25T16:29:48.819Z,95519.81
2023-02-25T16:32:49.388Z,95523.91
2023-02-25T16:35:25.214Z,95513.03
2023-02-25T16:38:17.100Z,95533.03
2023-02-25T16:40:45.382Z,95537.00
2023-02-25T16:43:14.606Z,95537.50
2023-02-25T16:46:10.609Z,95542.84
2023-02-25T16:48:46.021Z,95524.56
2023-02-25T16:51:26.958Z,95551.69
2023-02-25T16:53:58.071Z,95560.97
2023-02-25T16:56:28.941Z,95567.47
2023-02-25T16:59:00.322Z,95573.16
2023-02-25T17:01:30.383Z,95578.84
2023-02-25T17:04:09.427Z,95578.84
2023-02-25T17:06:36.056Z,95575.69
2023-02-25T17:09:02.742Z,95560.09
2023-02-25T17:11:29.891Z,95562.28
2023-02-25T17:14:01.836Z,95570.19
2023-02-25T17:16:32.327Z,95569.38
2023-02-25T17:19:04.071Z,95596.06
2023-02-25T17:21:35.553Z,95593.53
2023-02-25T17:24:05.773Z,95590.06
2023-02-25T17:26:32.644Z,95606.94
2023-02-25T17:29:01.852Z,95617.34
2023-02-25T17:31:30.992Z,95612.78
2023-02-25T17:34:01.017Z,95621.31
2023-02-25T17:36:34.404Z,95612.16
2023-02-25T17:39:13.020Z,95621.47
2023-02-25T17:41:41.988Z,95609.63
2023-02-25T17:44:45.098Z,95634.75
2023-02-25T17:47:20.081Z,95639.31
2023-02-25T17:49:47.498Z,95626.53
2023-02-25T17:52:21.277Z,95648.94
2023-02-25T17:54:55.476Z,95653.19
2023-02-25T17:57:24.461Z,95657.78
2023-02-25T17:59:57.021Z,95656.22
2023-02-25T18:02:31.942Z,95627.31
2023-02-25T18:05:23.476Z,95657.31
2023-02-25T18:08:10.400Z,95662.53
2023-02-25T18:10:36.994Z,95669.94
2023-02-25T18:13:05.263Z,95660.63
2023-02-25T18:15:33.402Z,95670.41
2023-02-25T18:18:03.100Z,95670.72
2023-02-25T18:20:35.567Z,95673.09
2023-02-25T18:23:06.958Z,95678.47
2023-02-25T18:25:39.904Z,95673.88
2023-02-25T18:28:13.765Z,95675.94
2023-02-25T18:30:40.495Z,95681.59
2023-02-25T18:33:08.625Z,95692.50
2023-02-25T18:35:35.307Z,95693.13
2023-02-25T18:38:03.596Z,95679.38
2023-02-25T18:40:32.984Z,95715.22
2023-02-25T18:43:00.196Z,95708.44
2023-02-25T18:45:28.872Z,95724.38
2023-02-25T18:48:00.578Z,95716.94
2023-02-25T18:50:31.457Z,95720.75
2023-02-25T18:52:58.879Z,95718.84
2023-02-25T18:55:29.830Z,95725.00
2023-02-25T18:57:56.556Z,95718.69
2023-02-25T19:00:25.059Z,95729.88
2023-02-25T19:02:54.339Z,95730.22
2023-02-25T19:05:23.198Z,95733.38
2023-02-25T19:07:50.242Z,95722.63
2023-02-25T19:10:19.807Z,95737.16
2023-02-25T19:12:49.659Z,95730.69
2023-02-25T19:15:21.616Z,95748.19
2023-02-25T19:17:49.415Z,95752.78
2023-02-25T19:20:19.490Z,95756.88
2023-02-25T19:22:51.671Z,95757.31
2023-02-25T19:25:23.802Z,95769.94
2023-02-25T19:27:52.746Z,95726.94
2023-02-25T19:30:22.966Z,95763.94
2023-02-25T19:32:49.655Z,95745.75
2023-02-25T19:35:16.420Z,95770.56
2023-02-25T19:37:43.454Z,95774.03
2023-02-25T19:40:13.687Z,95765.47
2023-02-25T19:42:41.695Z,95779.38
2023-02-25T19:45:10.778Z,95775.88
2023-02-25T19:47:37.490Z,95765.94
2023-02-25T19:50:05.566Z,95775.25
2023-02-25T19:52:33.345Z,95752.78
2023-02-25T19:55:00.883Z,95783.59
2023-02-25T19:57:27.640Z,95767.31
2023-02-25T19:59:54.358Z,95772.34
2023-02-25T20:02:20.893Z,95787.06
2023-02-25T20:04:47.657Z,95790.22
2023-02-25T20:07:15.565Z,95771.25
2023-02-25T20:09:42.821Z,95782.31
2023-02-25T20:12:09.755Z,95787.22
2023-02-25T20:14:37.306Z,95787.69
2023-02-25T20:17:05.111Z,95796.50
2023-02-25T20:19:33.056Z,95816.06
2023-02-25T20:22:00.988Z,95814.69
2023-02-25T20:24:28.863Z,95815.97
2023-02-25T20:26:56.070Z,95823.38
2023-02-25T20:29:23.054Z,95820.38
2023-02-25T20:31:58.625Z,95808.53
2023-02-25T20:34:28.242Z,95819.41
2023-02-25T20:37:00.150Z,95828.56
2023-02-25T20:39:38.999Z,95833.16
2023-02-25T20:42:11.830Z,95834.56
2023-02-25T20:44:39.087Z,95840.38
2023-02-25T20:47:06.390Z,95818.22
2023-02-25T20:49:34.061Z,95834.81
2023-02-25T20:52:00.778Z,95828.66
2023-02-25T20:54:27.455Z,95838.47
2023-02-25T20:56:54.556Z,95834.03
2023-02-25T20:59:21.195Z,95847.31
2023-02-25T21:01:47.838Z,95849.84
2023-02-25T21:04:14.505Z,95850.44
2023-02-25T21:06:41.137Z,95847.44
2023-02-25T21:09:08.134Z,95863.69
2023-02-25T21:11:35.377Z,95855.09
2023-02-25T21:14:02.060Z,95859.75
2023-02-25T21:16:28.825Z,95850.59
2023-02-25T21:18:58.120Z,95859.78
2023-02-25T21:21:26.902Z,95877.75
2023-02-25T21:23:53.537Z,95862.97
2023-02-25T21:26:20.315Z,95882.38
2023-02-25T21:28:46.944Z,95880.97
2023-02-25T21:31:15.760Z,95881.78
2023-02-25T21:33:42.671Z,95884.47
2023-02-25T21:36:11.395Z,95867.69
2023-02-25T21:38:38.975Z,95883.16
2023-02-25T21:41:12.538Z,95849.63
2023-02-25T21:43:39.714Z,95888.72
2023-02-25T21:46:10.996Z,95901.00
2023-02-25T21:48:39.256Z,95898.16
2023-02-25T21:51:06.558Z,95911.75
2023-02-25T21:53:33.357Z,95912.56
2023-02-25T21:56:17.885Z,95910.19
2023-02-25T21:58:45.007Z,95888.84
2023-02-25T22:01:17.372Z,95913.59
2023-02-25T22:03:44.937Z,95908.22
2023-02-25T22:06:12.172Z,95933.03
2023-02-25T22:08:47.928Z,95921.31
2023-02-25T22:11:20.959Z,95921.28
2023-02-25T22:13:48.264Z,95920.50
2023-02-25T22:16:15.898Z,95930.91
2023-02-25T22:18:42.977Z,95932.00
2023-02-25T22:21:13.802Z,95897.81
2023-02-25T22:23:41.382Z,95940.72
2023-02-25T22:26:10.435Z,95936.91
2023-02-25T22:28:37.293Z,95942.25
2023-02-25T22:31:05.354Z,95952.84
2023-02-25T22:33:33.302Z,95969.31
2023-02-25T22:36:03.330Z,95964.88
2023-02-25T22:38:32.483Z,95967.16
2023-02-25T22:41:01.388Z,95979.78
2023-02-25T22:43:29.356Z,95971.47
2023-02-25T22:46:14.808Z,95993.50
2023-02-25T22:48:42.783Z,95992.56
2023-02-25T22:51:11.090Z,95989.44
2023-02-25T22:53:39.419Z,95999.03
2023-02-25T22:56:09.141Z,95995.75
2023-02-25T22:58:38.995Z,96000.44
2023-02-25T23:01:09.903Z,95998.84
2023-02-25T23:03:38.473Z,95999.34
2023-02-25T23:06:06.660Z,95997.50
2023-02-25T23:08:34.750Z,96003.72
2023-02-25T23:11:09.967Z,96005.13
2023-02-25T23:13:37.937Z,95999.88
2023-02-25T23:16:05.342Z,96013.94
2023-02-25T23:18:33.624Z,96023.72
2023-02-25T23:21:05.782Z,96025.00
2023-02-25T23:23:38.516Z,95997.75
2023-02-25T23:26:08.469Z,96033.84
2023-02-25T23:28:36.098Z,96029.84
2023-02-25T23:31:04.542Z,96023.59
2023-02-25T23:33:31.981Z,96025.84
2023-02-25T23:36:00.078Z,96020.47
2023-02-25T23:38:27.729Z,96034.38
2023-02-25T23:40:59.445Z,96026.16
2023-02-25T23:43:25.999Z,96049.78
2023-02-25T23:45:52.710Z,96053.44
2023-02-25T23:48:19.527Z,96040.38
2023-02-25T23:50:46.224Z,96064.28
2023-02-25T23:53:12.946Z,96057.16
2023-02-25T23:55:39.617Z,96058.41
2023-02-25T23:58:06.260Z,96084.63
